Latest Coastal Weather Observations for Portland Harbour

IDV60701

Issued at 2:05 pm EST Monday 15 September 2014 (issued every 10 minutes, with the page automatically refreshed every 10 minutes)

About coastal observations | Map of coastal stations | Coastal observations for VIC | Marine services | Other Formats
Station Details ID: 090192 Name: PORTLAND NTC AWS Lat: -38.34 Lon: 141.61 Height: 0.0 m
Data from the previous 72 hours. | See also: Recent months for locations in Victoria
Date/Time
EST
Temp

°C
Wind Pressure Rain
since 9am
mm
Weather Cloud Vis
km
Sea
Height
m
Swell
Dir
 
Speed
knots
Gust
knots
hPa Trend Height
m
Period
s
Dir
15/02:00pm 13.3 ESE 23 28 1010.2 - - - - - - - - -
15/01:30pm 13.4 ESE 23 28 1010.1 - - - - - - - - -
15/01:00pm 13.5 ESE 22 30 1010.2 - - - - - - - - -
15/12:30pm 13.5 ESE 22 28 1010.8 - - - - - - - - -
15/12:00pm 13.4 ESE 21 26 1011.1 - - - - - - - - -
15/11:30am 13.5 ESE 17 23 1011.6 - - - - - - - - -
15/11:00am 13.4 ESE 17 22 1012.1 - - - - - - - - -
15/10:30am 13.4 ESE 16 23 1012.7 - - - - - - - - -
15/10:00am 13.2 ESE 15 23 1013.1 - - - - - - - - -
15/09:30am 13.2 ESE 14 20 1013.5 - - - - - - - - -
15/09:00am 13.0 E 17 21 1013.4 - - - - - - - - -
15/08:30am 12.9 E 17 21 1013.7 - - - - - - - - -
15/08:00am 12.9 E 16 18 1014.1 - - - - - - - - -
15/07:30am 12.7 E 17 21 1014.1 - - - - - - - - -
15/07:00am 12.7 E 16 19 1014.1 - - - - - - - - -
15/06:30am 12.6 E 17 20 1014.1 - - - - - - - - -
15/06:00am 12.5 E 16 19 1013.8 - - - - - - - - -
15/05:30am 12.3 E 12 15 1014.8 - - - - - - - - -
15/05:00am 12.4 E 14 18 1014.6 - - - - - - - - -
15/04:30am 12.4 E 15 18 1014.8 - - - - - - - - -
15/04:00am 12.4 E 13 17 1015.2 - - - - - - - - -
15/03:30am 12.8 E 16 18 1015.3 - - - - - - - - -
15/03:00am 12.5 E 15 18 1014.6 - - - - - - - - -
15/02:30am 12.6 ENE 14 17 1015.7 - - - - - - - - -
15/02:00am 12.7 ENE 18 20 1015.7 - - - - - - - - -
15/01:30am 12.8 E 15 17 1016.2 - - - - - - - - -
15/01:00am 13.0 E 13 17 1016.7 - - - - - - - - -
15/12:30am 13.2 E 14 17 1017.0 - - - - - - - - -
15/12:00am 13.1 ENE 13 16 1017.3 - - - - - - - - -
 
Date/Time
EST
Temp

°C
Wind Pressure Rain
since 9am
mm
Weather Cloud Vis
km
Sea
Height
m
Swell
Dir
 
Speed
knots
Gust
knots
hPa Trend Height
m
Period
s
Dir
14/11:30pm 13.2 ENE 14 16 1017.5 - - - - - - - - -
14/11:00pm 13.7 E 16 19 1017.9 - - - - - - - - -
14/10:30pm 13.6 E 15 18 1018.2 - - - - - - - - -
14/10:00pm 13.8 E 14 18 1018.3 - - - - - - - - -
14/09:30pm 13.8 ESE 13 15 1018.9 - - - - - - - - -
14/09:00pm 13.9 ESE 9 13 1019.2 - - - - - - - - -
14/08:30pm 13.9 ESE 9 12 1019.4 - - - - - - - - -
14/08:00pm 13.8 ESE 10 13 1019.3 - - - - - - - - -
14/07:30pm 13.8 ESE 11 13 1019.0 - - - - - - - - -
14/07:00pm 13.8 ESE 10 13 1018.7 - - - - - - - - -
14/06:30pm 13.7 SE 10 13 1018.6 - - - - - - - - -
14/06:00pm 13.8 SE 9 11 1018.8 - - - - - - - - -
14/05:30pm 13.8 SE 8 11 1018.6 - - - - - - - - -
14/05:00pm 13.9 SE 8 10 1018.6 - - - - - - - - -
14/04:30pm 14.1 SE 8 10 1018.5 - - - - - - - - -
14/04:00pm 13.7 SE 8 11 1018.6 - - - - - - - - -
14/03:30pm 14.1 SE 8 11 1018.7 - - - - - - - - -
14/03:00pm 13.8 ESE 9 11 1018.7 - - - - - - - - -
14/02:30pm 13.8 ESE 9 11 1019.1 - - - - - - - - -
14/02:00pm 13.7 ESE 6 7 1019.4 - - - - - - - - -
14/01:30pm 13.6 ESE 5 7 1019.4 - - - - - - - - -
14/01:00pm 13.5 ESE 6 7 1019.7 - - - - - - - - -
14/12:30pm 13.5 ESE 5 7 1020.3 - - - - - - - - -
14/12:00pm 13.2 ESE 6 8 1020.7 - - - - - - - - -
14/11:30am 13.2 ESE 4 6 1020.9 - - - - - - - - -
14/11:00am 12.9 ENE 3 4 1021.3 - - - - - - - - -
14/10:30am 12.9 ENE 4 5 1021.2 - - - - - - - - -
14/10:00am 13.0 E 3 4 1021.3 - - - - - - - - -
14/09:30am 12.7 E 3 5 1021.3 - - - - - - - - -
14/09:00am 11.6 SW 1 2 1021.6 - - - - - - - - -
14/08:30am 9.1 SW 3 4 1021.5 - - - - - - - - -
14/08:00am 8.2 SW 3 4 1021.3 - - - - - - - - -
14/07:30am 7.4 SW 3 4 1021.1 - - - - - - - - -
14/07:00am 7.1 WSW 4 5 1021.0 - - - - - - - - -
14/06:30am 7.1 SW 4 5 1020.9 - - - - - - - - -
14/06:00am 8.0 SW 2 3 1020.6 - - - - - - - - -
14/05:30am 8.0 WSW 3 4 1020.6 - - - - - - - - -
14/05:00am 8.1 WSW 3 5 1020.6 - - - - - - - - -
14/04:30am 7.8 WSW 3 4 1020.3 - - - - - - - - -
14/04:00am 8.3 W 2 3 1020.3 - - - - - - - - -
14/03:30am 8.5 SW 3 4 1020.5 - - - - - - - - -
14/03:00am 8.5 SW 2 3 1020.8 - - - - - - - - -
14/02:30am 8.9 W 3 4 1021.0 - - - - - - - - -
14/02:00am 9.1 W 3 3 1021.4 - - - - - - - - -
14/01:30am 9.2 W 4 5 1021.9 - - - - - - - - -
14/01:00am 10.0 WNW 2 3 1021.9 - - - - - - - - -
14/12:30am 10.2 WSW 2 3 1021.9 - - - - - - - - -
14/12:00am 10.7 WSW 2 3 1022.2 - - - - - - - - -
 
Date/Time
EST
Temp

°C
Wind Pressure Rain
since 9am
mm
Weather Cloud Vis
km
Sea
Height
m
Swell
Dir
 
Speed
knots
Gust
knots
hPa Trend Height
m
Period
s
Dir
13/11:30pm 10.8 WSW 3 3 1022.4 - - - - - - - - -
13/11:00pm 10.7 SW 3 3 1022.5 - - - - - - - - -
13/10:30pm 11.0 SW 2 3 1022.7 - - - - - - - - -
13/10:00pm 11.4 SW 1 1 1022.8 - - - - - - - - -
13/09:30pm 11.7 CALM 0 1 1022.8 - - - - - - - - -
13/09:00pm 11.7 SSW 2 3 1022.8 - - - - - - - - -
13/08:30pm 11.5 W 1 2 1022.7 - - - - - - - - -
13/08:00pm 11.9 SSW 3 4 1022.7 - - - - - - - - -
13/07:30pm 12.2 SW 3 4 1022.4 - - - - - - - - -
13/07:00pm 12.6 SSW 4 6 1022.2 - - - - - - - - -
13/06:30pm 13.2 SW 5 7 1022.1 - - - - - - - - -
13/06:00pm 13.9 WSW 5 7 1022.1 - - - - - - - - -
13/05:30pm 14.3 WSW 5 6 1021.9 - - - - - - - - -
13/05:00pm 14.2 WSW 6 10 1021.9 - - - - - - - - -
13/04:30pm 14.3 W 6 9 1022.1 - - - - - - - - -
13/04:00pm 14.0 SW 6 9 1022.4 - - - - - - - - -
13/03:30pm 14.4 W 5 8 1022.3 - - - - - - - - -
13/03:00pm 14.2 WNW 6 10 1022.4 - - - - - - - - -
13/02:30pm 14.2 WNW 7 10 1022.7 - - - - - - - - -
13/02:00pm 14.2 NNW 9 13 1022.8 - - - - - - - - -
13/01:30pm 14.0 WNW 7 12 1023.1 - - - - - - - - -
13/01:00pm 14.0 NW 8 14 1023.5 - - - - - - - - -
13/12:30pm 13.8 NNW 10 16 1023.9 - - - - - - - - -
13/12:00pm 13.8 NNW 9 16 1024.1 - - - - - - - - -
13/11:30am 13.3 NNW 8 11 1024.4 - - - - - - - - -
13/11:00am 13.3 NNW 9 11 1024.6 - - - - - - - - -
13/10:30am 13.0 NNW 9 13 1024.8 - - - - - - - - -
13/10:00am 12.8 NNW 10 14 1025.0 - - - - - - - - -
13/09:30am 12.7 N 8 12 1025.2 - - - - - - - - -
13/09:00am 12.6 NNW 6 9 1025.4 - - - - - - - - -
13/08:30am 12.3 NW 6 8 1025.4 - - - - - - - - -
13/08:00am 11.7 NNW 7 9 1025.2 - - - - - - - - -
13/07:30am 11.4 NW 7 10 1025.2 - - - - - - - - -
13/07:00am 11.4 NNW 9 12 1025.0 - - - - - - - - -
13/06:30am 11.5 NNW 8 10 1024.8 - - - - - - - - -
13/06:00am 11.3 NW 4 6 1024.8 - - - - - - - - -
13/05:30am 11.2 NW 3 5 1024.8 - - - - - - - - -
13/05:00am 11.4 WNW 3 5 1024.8 - - - - - - - - -
13/04:30am 11.5 WNW 3 4 1024.7 - - - - - - - - -
13/04:00am 11.4 W 3 5 1024.8 - - - - - - - - -
13/03:30am 11.6 WNW 4 7 1024.9 - - - - - - - - -
13/03:00am 11.6 NNW 6 9 1025.1 - - - - - - - - -
13/02:30am 11.9 NW 5 6 1025.3 - - - - - - - - -
13/02:00am 11.6 W 1 2 1025.5 - - - - - - - - -
13/01:30am 11.7 W 2 4 1025.7 - - - - - - - - -
13/01:00am 11.7 WSW 4 5 1025.8 - - - - - - - - -
13/12:30am 11.8 NW 3 5 1025.8 - - - - - - - - -
13/12:00am 11.8 WNW 4 5 1026.0 - - - - - - - - -
 
Date/Time
EST
Temp

°C
Wind Pressure Rain
since 9am
mm
Weather Cloud Vis
km
Sea
Height
m
Swell
Dir
 
Speed
knots
Gust
knots
hPa Trend Height
m
Period
s
Dir
12/11:30pm 12.0 NW 6 8 1026.2 - - - - - - - - -
12/11:00pm 12.0 NW 5 7 1026.5 - - - - - - - - -
12/10:30pm 12.1 NW 4 5 1026.5 - - - - - - - - -
12/10:00pm 12.0 NW 5 6 1026.6 - - - - - - - - -
12/09:30pm 12.4 WSW 3 4 1026.6 - - - - - - - - -
12/09:00pm 12.4 W 3 5 1026.7 - - - - - - - - -
12/08:30pm 12.5 W 3 6 1026.8 - - - - - - - - -
12/08:00pm 12.3 W 3 4 1026.8 - - - - - - - - -
12/07:30pm 12.3 W 4 6 1026.8 - - - - - - - - -
12/07:00pm 12.3 WSW 5 6 1026.6 - - - - - - - - -
12/06:30pm 12.7 W 4 6 1026.3 - - - - - - - - -
12/06:00pm 13.2 W 7 10 1026.0 - - - - - - - - -
12/05:30pm 13.6 W 7 11 1025.7 - - - - - - - - -
12/05:00pm 13.5 W 7 12 1025.7 - - - - - - - - -
12/04:30pm 14.1 W 9 12 1025.7 - - - - - - - - -
12/04:00pm 13.7 WNW 9 12 1025.6 - - - - - - - - -
12/03:30pm 13.8 W 9 12 1025.8 - - - - - - - - -
12/03:00pm 13.9 WSW 10 14 1026.0 - - - - - - - - -
12/02:30pm 13.8 W 9 15 1026.2 - - - - - - - - -

Other Formats:

Comma delimited format used in spreadsheet applications
http://www.bom.gov.au/fwo/IDV60701/IDV60701.95826.axf

JavaScript Object Notation format (JSON) in row-major order
http://www.bom.gov.au/fwo/IDV60701/IDV60701.95826.json